FW0211 Gilchrist TX US current weather conditions

sailwx.info

Wind from 141 at 4 knots gusting 6

Air temperature 18.3° C
Dewpoint 17.5° C

Last reported at 2019-Dec-09 00:00 UTC.
Time now 2019-Dec-09 00:46 UTC

Location: N 29°30' W 094°31'.
View on Google Maps.

See reports from other nearby stations

  
Tides and Currents Weather Stations Pressure Air Temp Water Temp Dewpoint Dewpoint Depression Visibility Wind Speed Wind Dir Waves Ship Positions
date/time (UTC)wind fromknots sea level pressurealtimeterstation pressurevisibilityair tempwater tempwave heightnotes
2019-Dec-09 00:00 141 4 gusting 6 18.3
2019-Dec-08 23:45 127 5 gusting 6 18.3
2019-Dec-08 23:30 123 5 gusting 6 18.3
2019-Dec-08 23:15 115 3 gusting 6 18.3
2019-Dec-08 23:00 094 4 gusting 6 18.3
2019-Dec-08 22:45 102 3 gusting 6 18.3
2019-Dec-08 22:30 124 4 gusting 6 18.9
2019-Dec-08 22:15 150 4 gusting 7 18.9
2019-Dec-08 22:00 113 5 gusting 7 18.9
2019-Dec-08 21:45 108 5 gusting 7 18.9
2019-Dec-08 21:31 136 5 gusting 7 18.9
2019-Dec-08 21:17 136 6 gusting 7 18.9
2019-Dec-08 21:01 105 5 gusting 6 19.4
2019-Dec-08 20:46 146 5 gusting 7 19.4
2019-Dec-08 20:31 112 4 gusting 6 18.9
2019-Dec-08 20:16 122 3 gusting 6 18.9
2019-Dec-08 20:02 116 3 gusting 6 19.4
2019-Dec-08 19:46 113 2 gusting 6 19.4
2019-Dec-08 19:31 115 2 gusting 5 19.4
2019-Dec-08 19:16 119 3 gusting 6 18.9
2019-Dec-08 19:00 110 3 gusting 6 18.9
2019-Dec-08 18:46 129 4 gusting 6 18.9
2019-Dec-08 18:31 128 3 gusting 7 18.9
2019-Dec-08 18:15 098 3 gusting 6 18.9
2019-Dec-08 18:01 127 3 gusting 6 18.9
2019-Dec-08 17:46 100 4 gusting 7 18.3
2019-Dec-08 17:31 098 4 gusting 7 18.3
2019-Dec-08 17:15 095 4 gusting 8 18.3
2019-Dec-08 17:01 113 5 gusting 7 18.3
2019-Dec-08 16:30 096 5 gusting 7 18.3
2019-Dec-08 16:15 097 2 gusting 6 18.3
2019-Dec-08 16:00 123 4 gusting 6 18.3
2019-Dec-08 15:45 131 3 gusting 6 17.8
2019-Dec-08 15:30 134 3 gusting 6 17.8
2019-Dec-08 15:15 084 4 gusting 6 17.2
2019-Dec-08 15:00 113 3 gusting 6 17.2
2019-Dec-08 14:45 110 3 gusting 6 16.7
2019-Dec-08 14:30 104 4 gusting 9 16.7
2019-Dec-08 14:02 110 6 gusting 9 15.6
2019-Dec-08 13:46 023 12.2
2019-Dec-08 13:32 083 11.1
2019-Dec-08 13:16 068 10.6
2019-Dec-08 13:01 050 10.6
2019-Dec-08 12:47 050 10.6
2019-Dec-08 12:32 050 11.1
2019-Dec-08 12:16 061 11.7
2019-Dec-08 12:01 041 11.7
2019-Dec-08 11:46 044 12.2
2019-Dec-08 11:30 130 0 gusting 5 15.6
2019-Dec-08 11:15 103 2 gusting 5 15.6
2019-Dec-08 11:01 115 2 gusting 6 15.6
2019-Dec-08 10:46 103 3 gusting 6 15.6
2019-Dec-08 10:31 114 4 gusting 7 15.6
2019-Dec-08 10:16 112 5 gusting 7 15.6
2019-Dec-08 10:01 127 4 gusting 7 15.6
2019-Dec-08 09:46 061 12.8
2019-Dec-08 09:31 046 13.3
2019-Dec-08 09:16 115 1 gusting 4 15.6
2019-Dec-08 09:01 099 3 gusting 6 15.6
2019-Dec-08 08:46 115 3 gusting 7 15.6
2019-Dec-08 08:31 115 4 gusting 6 15.6
2019-Dec-08 08:16 107 3 gusting 6 15.6
2019-Dec-08 08:00 103 2 gusting 6 15.6
2019-Dec-08 07:45 134 2 gusting 6 15.6
2019-Dec-08 07:30 105 3 gusting 6 15.6
2019-Dec-08 07:15 110 4 gusting 7 16.1
2019-Dec-08 07:00 103 3 gusting 6 15.6
2019-Dec-08 06:45 103 3 gusting 8 15.6
2019-Dec-08 06:30 095 5 gusting 8 15.6
2019-Dec-08 06:15 124 5 gusting 8 15.6
2019-Dec-08 06:01 111 4 gusting 9 15.6
2019-Dec-08 05:46 091 4 gusting 6 14.4
2019-Dec-08 05:31 032 12.2
2019-Dec-08 05:16 031 12.8
2019-Dec-08 05:02 041 13.3
2019-Dec-08 04:46 041 13.3
2019-Dec-08 04:31 036 13.9
2019-Dec-08 04:16 036 14.4
2019-Dec-08 04:02 105 15.6
2019-Dec-08 03:46 104 0 gusting 2 16.1
2019-Dec-08 03:31 111 1 gusting 2 16.1
2019-Dec-08 03:17 089 1 gusting 4 16.1
2019-Dec-08 03:01 117 2 gusting 5 16.7
2019-Dec-08 02:46 137 0 gusting 4 16.1
2019-Dec-08 02:31 193 0 gusting 3 16.1
2019-Dec-08 02:16 136 16.1
2019-Dec-08 02:01 148 16.1
2019-Dec-08 01:46 149 16.1
2019-Dec-08 01:31 140 16.1
2019-Dec-08 01:16 139 16.1
2019-Dec-08 01:01 124 16.1
2019-Dec-08 00:46 183 16.1
2019-Dec-08 00:31 139 16.1
2019-Dec-08 00:16 176 16.1
2019-Dec-08 00:01 146 16.1
2019-Dec-07 23:46 145 16.7
2019-Dec-07 23:31 130 1 gusting 4 16.7
2019-Dec-07 23:16 105 2 gusting 5 16.7
2019-Dec-07 23:01 125 1 gusting 3 17.2
2019-Dec-07 22:46 150 2 gusting 4 17.2
2019-Dec-07 22:30 136 1 gusting 4 17.2
2019-Dec-07 22:15 122 1 gusting 4 17.8
2019-Dec-07 22:01 124 1 gusting 5 17.8
2019-Dec-07 21:45 120 1 gusting 5 17.8
2019-Dec-07 21:31 139 2 gusting 4 18.3
2019-Dec-07 21:16 150 2 gusting 5 18.3
2019-Dec-07 21:01 155 1 gusting 5 18.3
2019-Dec-07 20:46 182 4 gusting 9 17.8
2019-Dec-07 20:31 116 6 gusting 8 20.0
2019-Dec-07 20:16 053 4 gusting 11 21.1
2019-Dec-07 20:00 027 6 gusting 12 21.1
2019-Dec-07 19:45 070 3 gusting 11 21.1
2019-Dec-07 19:30 015 3 gusting 8 20.6
2019-Dec-07 19:15 004 3 gusting 9 20.6
2019-Dec-07 19:00 027 6 gusting 10 20.0
2019-Dec-07 18:45 053 6 gusting 11 20.0
2019-Dec-07 18:30 032 6 gusting 13 19.4
2019-Dec-07 18:15 046 6 gusting 11 18.9
2019-Dec-07 18:00 051 6 gusting 14 18.3
2019-Dec-07 17:45 018 8 gusting 12 18.3
2019-Dec-07 17:30 019 6 gusting 10 17.8
2019-Dec-07 17:17 049 2 gusting 11 17.2
2019-Dec-07 16:46 023 7 gusting 12 16.1
2019-Dec-07 16:31 044 8 gusting 13 16.1
2019-Dec-07 16:15 024 7 gusting 13 15.6
2019-Dec-07 16:01 042 7 gusting 13 15.0
2019-Dec-07 15:45 049 9 gusting 12 14.4
2019-Dec-07 15:31 039 9 gusting 14 13.9
2019-Dec-07 15:01 029 8 gusting 12 13.3
2019-Dec-07 14:46 041 9 gusting 13 12.8
2019-Dec-07 14:31 027 8 gusting 13 12.8
2019-Dec-07 14:16 015 6 gusting 12 12.2
2019-Dec-07 14:01 008 8 gusting 12 11.7
2019-Dec-07 13:46 008 6 gusting 11 11.7
2019-Dec-07 13:16 021 5 gusting 9 11.7
2019-Dec-07 13:00 016 5 gusting 11 11.7
2019-Dec-07 12:46 025 5 gusting 10 11.7
2019-Dec-07 12:31 048 6 gusting 10 11.7
2019-Dec-07 12:15 025 6 gusting 10 11.7
2019-Dec-07 12:01 035 7 gusting 12 12.2
2019-Dec-07 11:30 016 6 gusting 13 12.2
2019-Dec-07 11:15 020 6 gusting 12 12.2
2019-Dec-07 11:00 013 7 gusting 13 12.2
2019-Dec-07 10:45 025 7 gusting 12 12.2
2019-Dec-07 10:30 034 6 gusting 13 12.8
2019-Dec-07 10:15 008 6 gusting 10 12.8
2019-Dec-07 09:45 352 5 gusting 11 12.8
2019-Dec-07 09:33 030 8 gusting 13 12.8
2019-Dec-07 09:17 009 7 gusting 13 13.3
2019-Dec-07 09:01 009 8 gusting 14 13.3
2019-Dec-07 08:47 347 6 gusting 12 13.3
2019-Dec-07 08:32 018 8 gusting 12 13.3
2019-Dec-07 08:17 356 7 gusting 11 13.3
2019-Dec-07 08:01 003 6 gusting 11 13.3
2019-Dec-07 07:46 355 6 gusting 12 13.9
2019-Dec-07 07:31 353 8 gusting 13 13.9
2019-Dec-07 07:16 016 8 gusting 12 13.9
2019-Dec-07 07:01 023 6 gusting 10 13.9
2019-Dec-07 06:46 354 6 gusting 10 14.4
2019-Dec-07 06:31 008 6 gusting 10 14.4
2019-Dec-07 06:16 357 6 gusting 10 14.4
2019-Dec-07 06:01 335 7 gusting 13 15.0
2019-Dec-07 05:46 021 8 gusting 14 15.0
2019-Dec-07 05:31 338 6 gusting 11 15.6
2019-Dec-07 05:15 358 8 gusting 12 15.6
2019-Dec-07 05:00 352 6 gusting 12 15.6
2019-Dec-07 04:45 010 7 gusting 12 15.6
2019-Dec-07 04:30 330 6 gusting 11 15.6
2019-Dec-07 04:15 340 7 15.6
2019-Dec-07 04:00 345 6 gusting 12 15.6
2019-Dec-07 03:45 342 6 gusting 11 15.6
2019-Dec-07 03:30 345 5 gusting 9 15.6
2019-Dec-07 03:15 347 6 gusting 10 15.6
2019-Dec-07 03:00 342 4 gusting 8 15.6
2019-Dec-07 02:45 316 4 gusting 7 15.6
2019-Dec-07 02:30 335 5 gusting 9 16.1
2019-Dec-07 02:15 341 6 gusting 8 16.1
2019-Dec-07 02:02 339 6 gusting 11 16.7
2019-Dec-07 01:47 338 6 gusting 11 16.7
2019-Dec-07 01:32 356 5 gusting 10 16.7
2019-Dec-07 01:16 007 6 gusting 12 17.2
2019-Dec-07 01:02 346 6 gusting 12 17.2
2019-Dec-07 00:46 350 6 gusting 10 17.2
2019-Dec-07 00:32 001 6 gusting 12 17.2
2019-Dec-07 00:16 346 9 gusting 13 17.8
2019-Dec-07 00:01 035 8 gusting 13 17.8